sensor_id;sensor_type;location;lat;lon;timestamp;P1;durP1;ratioP1;P2;durP2;ratioP2
74503;SDS011;62988;55.776;37.544;2023-02-15T00:00:09;2.47;;;0.50;;
74503;SDS011;62988;55.776;37.544;2023-02-15T00:02:36;5.18;;;0.55;;
74503;SDS011;62988;55.776;37.544;2023-02-15T00:05:01;1.80;;;0.53;;
74503;SDS011;62988;55.776;37.544;2023-02-15T00:07:26;3.53;;;0.50;;
74503;SDS011;62988;55.776;37.544;2023-02-15T00:09:52;1.50;;;0.33;;
74503;SDS011;62988;55.776;37.544;2023-02-15T00:12:17;2.07;;;0.50;;
74503;SDS011;62988;55.776;37.544;2023-02-15T00:14:42;3.87;;;0.73;;
74503;SDS011;62988;55.776;37.544;2023-02-15T00:17:08;3.05;;;0.55;;
74503;SDS011;62988;55.776;37.544;2023-02-15T00:19:33;4.18;;;0.70;;
74503;SDS011;62988;55.776;37.544;2023-02-15T00:21:59;2.40;;;0.57;;
74503;SDS011;62988;55.776;37.544;2023-02-15T00:24:25;2.13;;;0.30;;
74503;SDS011;62988;55.776;37.544;2023-02-15T00:26:50;2.20;;;0.47;;
74503;SDS011;62988;55.776;37.544;2023-02-15T00:29:17;1.75;;;0.38;;
74503;SDS011;62988;55.776;37.544;2023-02-15T00:31:42;0.82;;;0.30;;
74503;SDS011;62988;55.776;37.544;2023-02-15T00:36:36;2.28;;;0.50;;
74503;SDS011;62988;55.776;37.544;2023-02-15T00:39:02;2.17;;;0.50;;
74503;SDS011;62988;55.776;37.544;2023-02-15T00:41:27;3.72;;;0.50;;
74503;SDS011;62988;55.776;37.544;2023-02-15T00:43:53;3.93;;;0.73;;
74503;SDS011;62988;55.776;37.544;2023-02-15T00:46:18;0.57;;;0.10;;
74503;SDS011;62988;55.776;37.544;2023-02-15T00:48:43;3.30;;;0.50;;
74503;SDS011;62988;55.776;37.544;2023-02-15T00:51:09;1.63;;;0.60;;
74503;SDS011;62988;55.776;37.544;2023-02-15T00:53:34;1.83;;;0.40;;
74503;SDS011;62988;55.776;37.544;2023-02-15T00:55:59;2.13;;;0.40;;
74503;SDS011;62988;55.776;37.544;2023-02-15T00:58:25;2.93;;;0.30;;
74503;SDS011;62988;55.776;37.544;2023-02-15T01:00:50;5.57;;;0.60;;
74503;SDS011;62988;55.776;37.544;2023-02-15T01:03:17;2.47;;;0.52;;
74503;SDS011;62988;55.776;37.544;2023-02-15T01:05:42;3.33;;;0.63;;
74503;SDS011;62988;55.776;37.544;2023-02-15T01:08:08;6.63;;;0.63;;
74503;SDS011;62988;55.776;37.544;2023-02-15T01:10:34;4.37;;;0.83;;
74503;SDS011;62988;55.776;37.544;2023-02-15T01:13:00;5.57;;;0.82;;
74503;SDS011;62988;55.776;37.544;2023-02-15T01:15:25;4.28;;;0.75;;
74503;SDS011;62988;55.776;37.544;2023-02-15T01:17:50;4.67;;;0.90;;
74503;SDS011;62988;55.776;37.544;2023-02-15T01:20:19;2.25;;;0.40;;
74503;SDS011;62988;55.776;37.544;2023-02-15T01:22:44;1.48;;;0.30;;
74503;SDS011;62988;55.776;37.544;2023-02-15T01:25:10;2.08;;;0.47;;
74503;SDS011;62988;55.776;37.544;2023-02-15T01:27:35;1.85;;;0.50;;
74503;SDS011;62988;55.776;37.544;2023-02-15T01:30:01;3.40;;;0.77;;
74503;SDS011;62988;55.776;37.544;2023-02-15T01:32:26;5.80;;;0.73;;
74503;SDS011;62988;55.776;37.544;2023-02-15T01:34:52;5.45;;;0.60;;
74503;SDS011;62988;55.776;37.544;2023-02-15T01:37:17;3.67;;;0.75;;
74503;SDS011;62988;55.776;37.544;2023-02-15T01:39:42;1.92;;;0.55;;
74503;SDS011;62988;55.776;37.544;2023-02-15T01:42:11;1.60;;;0.40;;
74503;SDS011;62988;55.776;37.544;2023-02-15T01:47:16;3.83;;;0.85;;
74503;SDS011;62988;55.776;37.544;2023-02-15T01:49:43;0.80;;;0.30;;
74503;SDS011;62988;55.776;37.544;2023-02-15T01:52:09;3.30;;;0.40;;
74503;SDS011;62988;55.776;37.544;2023-02-15T01:54:36;4.65;;;0.50;;
74503;SDS011;62988;55.776;37.544;2023-02-15T01:57:04;1.75;;;0.35;;
74503;SDS011;62988;55.776;37.544;2023-02-15T01:59:30;3.42;;;0.30;;
74503;SDS011;62988;55.776;37.544;2023-02-15T02:01:57;1.48;;;0.43;;
74503;SDS011;62988;55.776;37.544;2023-02-15T02:04:25;3.53;;;0.60;;
74503;SDS011;62988;55.776;37.544;2023-02-15T02:06:54;2.25;;;0.47;;
74503;SDS011;62988;55.776;37.544;2023-02-15T02:09:22;4.78;;;0.60;;
74503;SDS011;62988;55.776;37.544;2023-02-15T02:11:47;2.00;;;0.53;;
74503;SDS011;62988;55.776;37.544;2023-02-15T02:14:13;4.25;;;0.50;;
74503;SDS011;62988;55.776;37.544;2023-02-15T02:19:37;4.03;;;0.63;;
74503;SDS011;62988;55.776;37.544;2023-02-15T02:24:47;0.75;;;0.28;;
74503;SDS011;62988;55.776;37.544;2023-02-15T02:35:16;3.70;;;0.80;;
74503;SDS011;62988;55.776;37.544;2023-02-15T02:43:22;4.55;;;0.57;;
74503;SDS011;62988;55.776;37.544;2023-02-15T02:45:52;3.83;;;0.73;;
74503;SDS011;62988;55.776;37.544;2023-02-15T02:48:21;1.90;;;0.20;;
74503;SDS011;62988;55.776;37.544;2023-02-15T02:50:48;2.30;;;0.47;;
74503;SDS011;62988;55.776;37.544;2023-02-15T02:53:13;3.90;;;0.68;;
74503;SDS011;62988;55.776;37.544;2023-02-15T02:58:20;2.63;;;0.43;;
74503;SDS011;62988;55.776;37.544;2023-02-15T03:01:01;4.88;;;0.43;;
74503;SDS011;62988;55.776;37.544;2023-02-15T03:05:59;3.23;;;0.80;;
74503;SDS011;62988;55.776;37.544;2023-02-15T03:08:25;3.33;;;1.35;;
74503;SDS011;62988;55.776;37.544;2023-02-15T03:10:53;3.40;;;0.70;;
74503;SDS011;62988;55.776;37.544;2023-02-15T03:13:20;3.60;;;0.70;;
74503;SDS011;62988;55.776;37.544;2023-02-15T03:15:46;3.38;;;0.75;;
74503;SDS011;62988;55.776;37.544;2023-02-15T03:18:34;2.50;;;0.57;;
74503;SDS011;62988;55.776;37.544;2023-02-15T03:21:00;3.13;;;0.55;;
74503;SDS011;62988;55.776;37.544;2023-02-15T03:23:26;2.47;;;0.80;;
74503;SDS011;62988;55.776;37.544;2023-02-15T03:25:56;1.73;;;0.50;;
74503;SDS011;62988;55.776;37.544;2023-02-15T03:28:24;2.70;;;0.60;;
74503;SDS011;62988;55.776;37.544;2023-02-15T03:30:51;3.85;;;0.70;;
74503;SDS011;62988;55.776;37.544;2023-02-15T03:33:18;5.47;;;0.70;;
74503;SDS011;62988;55.776;37.544;2023-02-15T03:35:49;3.17;;;0.70;;
74503;SDS011;62988;55.776;37.544;2023-02-15T03:38:18;3.42;;;0.70;;
74503;SDS011;62988;55.776;37.544;2023-02-15T03:40:45;2.63;;;0.70;;
74503;SDS011;62988;55.776;37.544;2023-02-15T03:46:06;4.13;;;0.75;;
74503;SDS011;62988;55.776;37.544;2023-02-15T03:48:35;6.25;;;0.80;;
74503;SDS011;62988;55.776;37.544;2023-02-15T03:51:02;4.05;;;0.73;;
74503;SDS011;62988;55.776;37.544;2023-02-15T03:53:48;2.65;;;0.70;;
74503;SDS011;62988;55.776;37.544;2023-02-15T03:56:14;5.15;;;0.70;;
74503;SDS011;62988;55.776;37.544;2023-02-15T03:58:39;2.63;;;0.60;;
74503;SDS011;62988;55.776;37.544;2023-02-15T04:01:25;1.40;;;0.40;;
74503;SDS011;62988;55.776;37.544;2023-02-15T04:04:20;1.70;;;0.50;;
74503;SDS011;62988;55.776;37.544;2023-02-15T04:06:46;3.30;;;0.50;;
74503;SDS011;62988;55.776;37.544;2023-02-15T04:09:12;3.87;;;0.60;;
74503;SDS011;62988;55.776;37.544;2023-02-15T04:11:56;2.17;;;0.73;;
74503;SDS011;62988;55.776;37.544;2023-02-15T04:14:21;1.60;;;0.50;;
74503;SDS011;62988;55.776;37.544;2023-02-15T04:17:06;2.72;;;0.70;;
74503;SDS011;62988;55.776;37.544;2023-02-15T04:19:31;2.42;;;0.40;;
74503;SDS011;62988;55.776;37.544;2023-02-15T04:22:15;1.73;;;0.40;;
74503;SDS011;62988;55.776;37.544;2023-02-15T04:24:59;5.07;;;0.70;;
74503;SDS011;62988;55.776;37.544;2023-02-15T04:27:37;1.50;;;0.50;;
74503;SDS011;62988;55.776;37.544;2023-02-15T04:30:03;3.53;;;1.02;;
74503;SDS011;62988;55.776;37.544;2023-02-15T04:32:29;3.78;;;0.63;;
74503;SDS011;62988;55.776;37.544;2023-02-15T04:34:54;5.67;;;0.80;;
74503;SDS011;62988;55.776;37.544;2023-02-15T04:37:19;3.90;;;0.70;;
74503;SDS011;62988;55.776;37.544;2023-02-15T04:39:45;5.45;;;0.75;;
74503;SDS011;62988;55.776;37.544;2023-02-15T04:42:10;3.72;;;0.60;;
74503;SDS011;62988;55.776;37.544;2023-02-15T04:44:36;1.97;;;0.83;;
74503;SDS011;62988;55.776;37.544;2023-02-15T04:47:01;2.90;;;0.67;;
74503;SDS011;62988;55.776;37.544;2023-02-15T04:49:26;3.67;;;0.70;;
74503;SDS011;62988;55.776;37.544;2023-02-15T04:51:52;2.53;;;0.70;;
74503;SDS011;62988;55.776;37.544;2023-02-15T04:54:17;4.37;;;0.80;;
74503;SDS011;62988;55.776;37.544;2023-02-15T04:56:42;2.23;;;0.53;;
74503;SDS011;62988;55.776;37.544;2023-02-15T04:59:11;3.17;;;0.52;;
74503;SDS011;62988;55.776;37.544;2023-02-15T05:01:37;5.25;;;0.70;;
74503;SDS011;62988;55.776;37.544;2023-02-15T05:04:02;3.17;;;0.90;;
74503;SDS011;62988;55.776;37.544;2023-02-15T05:06:28;4.75;;;1.10;;
74503;SDS011;62988;55.776;37.544;2023-02-15T05:08:53;4.93;;;0.90;;
74503;SDS011;62988;55.776;37.544;2023-02-15T05:11:18;5.75;;;1.00;;
74503;SDS011;62988;55.776;37.544;2023-02-15T05:13:44;5.33;;;1.00;;
74503;SDS011;62988;55.776;37.544;2023-02-15T05:16:09;3.03;;;0.70;;
74503;SDS011;62988;55.776;37.544;2023-02-15T05:18:34;5.20;;;1.63;;
74503;SDS011;62988;55.776;37.544;2023-02-15T05:21:00;6.67;;;1.37;;
74503;SDS011;62988;55.776;37.544;2023-02-15T05:23:25;7.43;;;1.05;;
74503;SDS011;62988;55.776;37.544;2023-02-15T05:25:51;3.53;;;0.70;;
74503;SDS011;62988;55.776;37.544;2023-02-15T05:28:36;3.17;;;0.70;;
74503;SDS011;62988;55.776;37.544;2023-02-15T05:31:07;1.35;;;0.40;;
74503;SDS011;62988;55.776;37.544;2023-02-15T05:33:33;5.88;;;0.90;;
74503;SDS011;62988;55.776;37.544;2023-02-15T05:35:59;3.90;;;0.50;;
74503;SDS011;62988;55.776;37.544;2023-02-15T05:38:24;2.88;;;0.70;;
74503;SDS011;62988;55.776;37.544;2023-02-15T05:40:52;4.13;;;1.20;;
74503;SDS011;62988;55.776;37.544;2023-02-15T05:43:18;3.10;;;0.70;;
74503;SDS011;62988;55.776;37.544;2023-02-15T05:45:44;4.55;;;1.08;;
74503;SDS011;62988;55.776;37.544;2023-02-15T05:48:10;3.70;;;1.23;;
74503;SDS011;62988;55.776;37.544;2023-02-15T05:50:35;4.55;;;1.52;;
74503;SDS011;62988;55.776;37.544;2023-02-15T05:53:00;6.40;;;1.63;;
74503;SDS011;62988;55.776;37.544;2023-02-15T05:55:26;5.03;;;1.50;;
74503;SDS011;62988;55.776;37.544;2023-02-15T05:57:51;4.28;;;1.60;;
74503;SDS011;62988;55.776;37.544;2023-02-15T06:00:17;6.40;;;1.70;;
74503;SDS011;62988;55.776;37.544;2023-02-15T06:02:42;3.22;;;1.45;;
74503;SDS011;62988;55.776;37.544;2023-02-15T06:05:08;4.20;;;1.20;;
74503;SDS011;62988;55.776;37.544;2023-02-15T06:07:33;6.30;;;1.40;;
74503;SDS011;62988;55.776;37.544;2023-02-15T06:09:58;6.60;;;1.73;;
74503;SDS011;62988;55.776;37.544;2023-02-15T06:12:24;5.57;;;1.60;;
74503;SDS011;62988;55.776;37.544;2023-02-15T06:14:49;4.22;;;1.08;;
74503;SDS011;62988;55.776;37.544;2023-02-15T06:17:15;7.80;;;1.40;;
74503;SDS011;62988;55.776;37.544;2023-02-15T06:19:41;6.65;;;1.42;;
74503;SDS011;62988;55.776;37.544;2023-02-15T06:22:07;3.60;;;1.30;;
74503;SDS011;62988;55.776;37.544;2023-02-15T06:24:32;5.88;;;1.55;;
74503;SDS011;62988;55.776;37.544;2023-02-15T06:26:57;4.60;;;1.67;;
74503;SDS011;62988;55.776;37.544;2023-02-15T06:29:23;4.45;;;1.38;;
74503;SDS011;62988;55.776;37.544;2023-02-15T06:31:48;10.37;;;1.53;;
74503;SDS011;62988;55.776;37.544;2023-02-15T06:34:13;7.33;;;1.67;;
74503;SDS011;62988;55.776;37.544;2023-02-15T06:36:39;3.57;;;1.43;;
74503;SDS011;62988;55.776;37.544;2023-02-15T06:39:04;5.83;;;1.50;;
74503;SDS011;62988;55.776;37.544;2023-02-15T06:41:30;6.88;;;1.67;;
74503;SDS011;62988;55.776;37.544;2023-02-15T06:43:55;5.67;;;1.53;;
74503;SDS011;62988;55.776;37.544;2023-02-15T06:46:21;5.10;;;1.50;;
74503;SDS011;62988;55.776;37.544;2023-02-15T06:48:46;5.35;;;1.42;;
74503;SDS011;62988;55.776;37.544;2023-02-15T06:51:11;5.25;;;1.10;;
74503;SDS011;62988;55.776;37.544;2023-02-15T06:53:37;3.57;;;1.30;;
74503;SDS011;62988;55.776;37.544;2023-02-15T06:56:03;5.47;;;1.40;;
74503;SDS011;62988;55.776;37.544;2023-02-15T06:58:31;3.40;;;1.15;;
74503;SDS011;62988;55.776;37.544;2023-02-15T07:00:56;6.18;;;1.30;;
74503;SDS011;62988;55.776;37.544;2023-02-15T07:03:21;3.33;;;1.47;;
74503;SDS011;62988;55.776;37.544;2023-02-15T07:05:47;5.70;;;1.47;;
74503;SDS011;62988;55.776;37.544;2023-02-15T07:08:13;4.97;;;1.30;;
74503;SDS011;62988;55.776;37.544;2023-02-15T07:10:39;5.97;;;1.50;;
74503;SDS011;62988;55.776;37.544;2023-02-15T07:13:08;4.75;;;0.65;;
74503;SDS011;62988;55.776;37.544;2023-02-15T07:15:33;3.57;;;1.00;;
74503;SDS011;62988;55.776;37.544;2023-02-15T07:17:58;4.90;;;1.30;;
74503;SDS011;62988;55.776;37.544;2023-02-15T07:20:24;3.58;;;1.10;;
74503;SDS011;62988;55.776;37.544;2023-02-15T07:22:49;4.65;;;1.23;;
74503;SDS011;62988;55.776;37.544;2023-02-15T07:25:15;2.90;;;1.60;;
74503;SDS011;62988;55.776;37.544;2023-02-15T07:27:41;10.00;;;1.60;;
74503;SDS011;62988;55.776;37.544;2023-02-15T07:30:07;4.38;;;1.00;;
74503;SDS011;62988;55.776;37.544;2023-02-15T07:32:33;4.85;;;1.38;;
74503;SDS011;62988;55.776;37.544;2023-02-15T07:34:58;3.63;;;1.40;;
74503;SDS011;62988;55.776;37.544;2023-02-15T07:37:24;5.63;;;1.65;;
74503;SDS011;62988;55.776;37.544;2023-02-15T07:39:50;6.78;;;1.60;;
74503;SDS011;62988;55.776;37.544;2023-02-15T07:42:15;5.00;;;1.90;;
74503;SDS011;62988;55.776;37.544;2023-02-15T07:44:40;9.00;;;1.88;;
74503;SDS011;62988;55.776;37.544;2023-02-15T07:47:06;6.50;;;1.70;;
74503;SDS011;62988;55.776;37.544;2023-02-15T07:49:31;9.20;;;1.67;;
74503;SDS011;62988;55.776;37.544;2023-02-15T07:51:56;5.28;;;1.80;;
74503;SDS011;62988;55.776;37.544;2023-02-15T07:54:22;3.57;;;1.10;;
74503;SDS011;62988;55.776;37.544;2023-02-15T07:56:47;8.07;;;1.75;;
74503;SDS011;62988;55.776;37.544;2023-02-15T07:59:13;6.27;;;1.50;;
74503;SDS011;62988;55.776;37.544;2023-02-15T08:01:39;5.50;;;1.70;;
74503;SDS011;62988;55.776;37.544;2023-02-15T08:04:04;4.75;;;1.35;;
74503;SDS011;62988;55.776;37.544;2023-02-15T08:06:31;6.32;;;2.30;;
74503;SDS011;62988;55.776;37.544;2023-02-15T08:08:57;4.95;;;1.50;;
74503;SDS011;62988;55.776;37.544;2023-02-15T08:19:25;5.85;;;1.48;;
74503;SDS011;62988;55.776;37.544;2023-02-15T08:21:51;12.05;;;2.10;;
74503;SDS011;62988;55.776;37.544;2023-02-15T08:24:18;7.50;;;1.75;;
74503;SDS011;62988;55.776;37.544;2023-02-15T08:26:44;6.18;;;1.10;;
74503;SDS011;62988;55.776;37.544;2023-02-15T08:29:11;3.35;;;0.90;;
74503;SDS011;62988;55.776;37.544;2023-02-15T08:31:37;4.05;;;1.20;;
74503;SDS011;62988;55.776;37.544;2023-02-15T08:34:03;5.35;;;1.65;;
74503;SDS011;62988;55.776;37.544;2023-02-15T08:36:29;3.92;;;1.20;;
74503;SDS011;62988;55.776;37.544;2023-02-15T08:39:00;3.22;;;1.38;;
74503;SDS011;62988;55.776;37.544;2023-02-15T08:41:27;1.38;;;0.52;;
74503;SDS011;62988;55.776;37.544;2023-02-15T08:43:55;3.85;;;1.20;;
74503;SDS011;62988;55.776;37.544;2023-02-15T08:46:22;3.17;;;1.15;;
74503;SDS011;62988;55.776;37.544;2023-02-15T08:48:47;2.78;;;0.80;;
74503;SDS011;62988;55.776;37.544;2023-02-15T08:51:17;2.88;;;0.93;;
74503;SDS011;62988;55.776;37.544;2023-02-15T08:53:44;4.18;;;1.05;;
74503;SDS011;62988;55.776;37.544;2023-02-15T08:56:10;3.97;;;1.10;;
74503;SDS011;62988;55.776;37.544;2023-02-15T08:58:36;2.70;;;0.85;;
74503;SDS011;62988;55.776;37.544;2023-02-15T09:01:02;2.47;;;1.02;;
74503;SDS011;62988;55.776;37.544;2023-02-15T09:03:32;6.38;;;1.70;;
74503;SDS011;62988;55.776;37.544;2023-02-15T09:05:58;4.90;;;1.10;;
74503;SDS011;62988;55.776;37.544;2023-02-15T09:08:24;4.75;;;1.10;;
74503;SDS011;62988;55.776;37.544;2023-02-15T09:10:50;7.82;;;1.20;;
74503;SDS011;62988;55.776;37.544;2023-02-15T09:13:15;5.93;;;1.10;;
74503;SDS011;62988;55.776;37.544;2023-02-15T09:15:40;5.07;;;1.00;;
74503;SDS011;62988;55.776;37.544;2023-02-15T09:18:06;4.33;;;1.00;;
74503;SDS011;62988;55.776;37.544;2023-02-15T09:20:35;4.25;;;1.02;;
74503;SDS011;62988;55.776;37.544;2023-02-15T09:23:00;4.65;;;1.15;;
74503;SDS011;62988;55.776;37.544;2023-02-15T09:25:26;2.27;;;0.80;;
74503;SDS011;62988;55.776;37.544;2023-02-15T09:27:52;3.72;;;1.08;;
74503;SDS011;62988;55.776;37.544;2023-02-15T09:30:17;5.65;;;1.20;;
74503;SDS011;62988;55.776;37.544;2023-02-15T09:32:42;5.77;;;2.37;;
74503;SDS011;62988;55.776;37.544;2023-02-15T09:35:08;4.73;;;1.20;;
74503;SDS011;62988;55.776;37.544;2023-02-15T09:37:33;3.23;;;1.00;;
74503;SDS011;62988;55.776;37.544;2023-02-15T09:40:00;2.38;;;1.05;;
74503;SDS011;62988;55.776;37.544;2023-02-15T09:50:11;3.78;;;1.10;;
74503;SDS011;62988;55.776;37.544;2023-02-15T10:13:26;5.65;;;0.90;;
74503;SDS011;62988;55.776;37.544;2023-02-15T10:16:12;2.47;;;0.90;;
74503;SDS011;62988;55.776;37.544;2023-02-15T10:21:32;4.32;;;0.68;;
74503;SDS011;62988;55.776;37.544;2023-02-15T10:26:43;2.10;;;0.70;;
74503;SDS011;62988;55.776;37.544;2023-02-15T10:34:17;0.90;;;0.27;;
74503;SDS011;62988;55.776;37.544;2023-02-15T10:41:53;2.92;;;0.60;;
74503;SDS011;62988;55.776;37.544;2023-02-15T10:44:33;2.92;;;0.85;;
74503;SDS011;62988;55.776;37.544;2023-02-15T10:57:30;3.08;;;0.70;;
74503;SDS011;62988;55.776;37.544;2023-02-15T11:05:07;2.80;;;1.00;;
74503;SDS011;62988;55.776;37.544;2023-02-15T11:07:43;2.10;;;0.70;;
74503;SDS011;62988;55.776;37.544;2023-02-15T11:12:42;3.28;;;0.90;;
74503;SDS011;62988;55.776;37.544;2023-02-15T11:15:15;1.60;;;0.85;;
74503;SDS011;62988;55.776;37.544;2023-02-15T11:17:43;1.88;;;0.57;;
74503;SDS011;62988;55.776;37.544;2023-02-15T11:22:42;2.05;;;0.73;;
74503;SDS011;62988;55.776;37.544;2023-02-15T11:25:40;1.52;;;0.47;;
74503;SDS011;62988;55.776;37.544;2023-02-15T11:28:00;2.00;;;0.70;;
74503;SDS011;62988;55.776;37.544;2023-02-15T11:30:29;3.08;;;0.68;;
74503;SDS011;62988;55.776;37.544;2023-02-15T11:32:59;2.50;;;0.80;;
74503;SDS011;62988;55.776;37.544;2023-02-15T11:37:58;2.40;;;0.85;;
74503;SDS011;62988;55.776;37.544;2023-02-15T11:43:03;2.75;;;0.85;;
74503;SDS011;62988;55.776;37.544;2023-02-15T11:45:31;4.03;;;1.40;;
74503;SDS011;62988;55.776;37.544;2023-02-15T11:47:57;5.38;;;0.80;;
74503;SDS011;62988;55.776;37.544;2023-02-15T11:50:24;2.17;;;0.80;;
74503;SDS011;62988;55.776;37.544;2023-02-15T11:52:50;2.22;;;0.73;;
74503;SDS011;62988;55.776;37.544;2023-02-15T11:55:18;2.42;;;0.70;;
74503;SDS011;62988;55.776;37.544;2023-02-15T11:57:45;1.90;;;0.60;;
74503;SDS011;62988;55.776;37.544;2023-02-15T12:02:43;6.38;;;0.80;;
74503;SDS011;62988;55.776;37.544;2023-02-15T12:05:14;3.45;;;0.80;;
74503;SDS011;62988;55.776;37.544;2023-02-15T12:07:42;3.00;;;0.60;;
74503;SDS011;62988;55.776;37.544;2023-02-15T12:12:39;2.17;;;0.60;;
74503;SDS011;62988;55.776;37.544;2023-02-15T12:15:05;2.85;;;0.75;;
74503;SDS011;62988;55.776;37.544;2023-02-15T12:17:32;3.42;;;1.13;;
74503;SDS011;62988;55.776;37.544;2023-02-15T12:20:40;4.45;;;0.65;;
74503;SDS011;62988;55.776;37.544;2023-02-15T12:22:53;2.08;;;0.70;;
74503;SDS011;62988;55.776;37.544;2023-02-15T12:25:25;2.35;;;0.60;;
74503;SDS011;62988;55.776;37.544;2023-02-15T12:27:51;1.35;;;0.45;;
74503;SDS011;62988;55.776;37.544;2023-02-15T12:30:34;1.27;;;0.43;;
74503;SDS011;62988;55.776;37.544;2023-02-15T12:35:27;2.30;;;0.63;;
74503;SDS011;62988;55.776;37.544;2023-02-15T12:37:54;1.95;;;0.55;;
74503;SDS011;62988;55.776;37.544;2023-02-15T12:40:21;2.53;;;0.68;;
74503;SDS011;62988;55.776;37.544;2023-02-15T12:42:47;2.55;;;0.57;;
74503;SDS011;62988;55.776;37.544;2023-02-15T12:45:29;1.90;;;0.57;;
74503;SDS011;62988;55.776;37.544;2023-02-15T12:48:28;2.50;;;0.57;;
74503;SDS011;62988;55.776;37.544;2023-02-15T12:50:47;2.40;;;0.47;;
74503;SDS011;62988;55.776;37.544;2023-02-15T12:53:23;2.30;;;0.55;;
74503;SDS011;62988;55.776;37.544;2023-02-15T12:56:02;2.20;;;0.70;;
74503;SDS011;62988;55.776;37.544;2023-02-15T12:58:37;3.85;;;0.60;;
74503;SDS011;62988;55.776;37.544;2023-02-15T13:01:17;2.08;;;0.40;;
74503;SDS011;62988;55.776;37.544;2023-02-15T13:06:48;1.50;;;0.50;;
74503;SDS011;62988;55.776;37.544;2023-02-15T13:09:15;2.28;;;0.60;;
74503;SDS011;62988;55.776;37.544;2023-02-15T13:11:42;2.13;;;0.40;;
74503;SDS011;62988;55.776;37.544;2023-02-15T13:14:16;2.85;;;0.65;;
74503;SDS011;62988;55.776;37.544;2023-02-15T13:16:43;2.15;;;0.50;;
74503;SDS011;62988;55.776;37.544;2023-02-15T13:19:10;3.47;;;0.50;;
74503;SDS011;62988;55.776;37.544;2023-02-15T13:21:37;0.88;;;0.22;;
74503;SDS011;62988;55.776;37.544;2023-02-15T13:26:30;4.45;;;0.60;;
74503;SDS011;62988;55.776;37.544;2023-02-15T13:28:57;1.95;;;0.63;;
74503;SDS011;62988;55.776;37.544;2023-02-15T13:31:25;2.70;;;0.70;;
74503;SDS011;62988;55.776;37.544;2023-02-15T13:34:12;2.05;;;0.50;;
74503;SDS011;62988;55.776;37.544;2023-02-15T13:36:45;2.90;;;0.55;;
74503;SDS011;62988;55.776;37.544;2023-02-15T13:39:20;1.50;;;0.50;;
74503;SDS011;62988;55.776;37.544;2023-02-15T13:44:32;2.22;;;0.57;;
74503;SDS011;62988;55.776;37.544;2023-02-15T13:52:24;1.48;;;0.50;;
74503;SDS011;62988;55.776;37.544;2023-02-15T14:00:33;2.92;;;0.60;;
74503;SDS011;62988;55.776;37.544;2023-02-15T14:03:24;1.40;;;0.50;;
74503;SDS011;62988;55.776;37.544;2023-02-15T14:16:09;3.67;;;0.90;;
74503;SDS011;62988;55.776;37.544;2023-02-15T14:18:42;3.17;;;0.60;;
74503;SDS011;62988;55.776;37.544;2023-02-15T14:21:10;2.88;;;0.70;;
74503;SDS011;62988;55.776;37.544;2023-02-15T14:23:44;1.20;;;0.40;;
74503;SDS011;62988;55.776;37.544;2023-02-15T14:26:17;2.47;;;0.73;;
74503;SDS011;62988;55.776;37.544;2023-02-15T14:31:24;1.33;;;0.45;;
74503;SDS011;62988;55.776;37.544;2023-02-15T14:33:55;5.97;;;0.63;;
74503;SDS011;62988;55.776;37.544;2023-02-15T14:36:21;1.83;;;0.30;;
74503;SDS011;62988;55.776;37.544;2023-02-15T14:41:36;2.38;;;0.68;;
74503;SDS011;62988;55.776;37.544;2023-02-15T14:44:37;2.38;;;0.52;;
74503;SDS011;62988;55.776;37.544;2023-02-15T14:49:23;1.07;;;0.40;;
74503;SDS011;62988;55.776;37.544;2023-02-15T14:56:44;2.55;;;0.68;;
74503;SDS011;62988;55.776;37.544;2023-02-15T15:01:41;2.95;;;0.50;;
74503;SDS011;62988;55.776;37.544;2023-02-15T15:04:14;2.33;;;0.50;;
74503;SDS011;62988;55.776;37.544;2023-02-15T15:06:55;1.83;;;0.65;;
74503;SDS011;62988;55.776;37.544;2023-02-15T15:09:24;1.63;;;0.50;;
74503;SDS011;62988;55.776;37.544;2023-02-15T15:11:51;1.80;;;0.43;;
74503;SDS011;62988;55.776;37.544;2023-02-15T15:16:58;3.95;;;0.70;;
74503;SDS011;62988;55.776;37.544;2023-02-15T15:22:17;2.65;;;0.63;;
74503;SDS011;62988;55.776;37.544;2023-02-15T15:29:52;0.95;;;0.22;;
74503;SDS011;62988;55.776;37.544;2023-02-15T15:32:19;0.47;;;0.20;;
74503;SDS011;62988;55.776;37.544;2023-02-15T15:37:41;0.98;;;0.30;;
74503;SDS011;62988;55.776;37.544;2023-02-15T15:47:49;1.73;;;0.47;;
74503;SDS011;62988;55.776;37.544;2023-02-15T15:50:17;1.02;;;0.30;;
74503;SDS011;62988;55.776;37.544;2023-02-15T15:52:48;0.88;;;0.38;;
74503;SDS011;62988;55.776;37.544;2023-02-15T15:55:15;0.77;;;0.30;;
74503;SDS011;62988;55.776;37.544;2023-02-15T15:57:43;1.02;;;0.40;;
74503;SDS011;62988;55.776;37.544;2023-02-15T16:00:30;1.50;;;0.57;;
74503;SDS011;62988;55.776;37.544;2023-02-15T16:02:57;1.58;;;0.52;;
74503;SDS011;62988;55.776;37.544;2023-02-15T16:05:22;1.40;;;0.40;;
74503;SDS011;62988;55.776;37.544;2023-02-15T16:07:48;1.30;;;0.40;;
74503;SDS011;62988;55.776;37.544;2023-02-15T16:10:23;2.40;;;0.40;;
74503;SDS011;62988;55.776;37.544;2023-02-15T16:12:49;1.55;;;0.40;;
74503;SDS011;62988;55.776;37.544;2023-02-15T16:15:17;1.00;;;0.32;;
74503;SDS011;62988;55.776;37.544;2023-02-15T16:17:44;1.27;;;0.40;;
74503;SDS011;62988;55.776;37.544;2023-02-15T16:20:20;0.60;;;0.25;;
74503;SDS011;62988;55.776;37.544;2023-02-15T16:22:47;0.65;;;0.30;;
74503;SDS011;62988;55.776;37.544;2023-02-15T16:25:23;1.48;;;0.60;;
74503;SDS011;62988;55.776;37.544;2023-02-15T16:27:51;1.25;;;0.40;;
74503;SDS011;62988;55.776;37.544;2023-02-15T16:30:21;1.85;;;0.30;;
74503;SDS011;62988;55.776;37.544;2023-02-15T16:35:13;0.97;;;0.30;;
74503;SDS011;62988;55.776;37.544;2023-02-15T16:37:39;4.20;;;0.40;;
74503;SDS011;62988;55.776;37.544;2023-02-15T16:40:04;1.00;;;0.40;;
74503;SDS011;62988;55.776;37.544;2023-02-15T16:42:30;0.93;;;0.25;;
74503;SDS011;62988;55.776;37.544;2023-02-15T16:45:05;1.85;;;0.40;;
74503;SDS011;62988;55.776;37.544;2023-02-15T16:47:33;0.75;;;0.20;;
74503;SDS011;62988;55.776;37.544;2023-02-15T16:50:01;0.80;;;0.28;;
74503;SDS011;62988;55.776;37.544;2023-02-15T16:52:27;0.82;;;0.20;;
74503;SDS011;62988;55.776;37.544;2023-02-15T16:54:54;0.98;;;0.35;;
74503;SDS011;62988;55.776;37.544;2023-02-15T16:57:21;1.75;;;0.43;;
74503;SDS011;62988;55.776;37.544;2023-02-15T16:59:48;7.30;;;0.60;;
74503;SDS011;62988;55.776;37.544;2023-02-15T17:02:18;0.60;;;0.20;;
74503;SDS011;62988;55.776;37.544;2023-02-15T17:04:44;1.90;;;0.40;;
74503;SDS011;62988;55.776;37.544;2023-02-15T17:07:19;1.00;;;0.40;;
74503;SDS011;62988;55.776;37.544;2023-02-15T17:09:48;0.52;;;0.15;;
74503;SDS011;62988;55.776;37.544;2023-02-15T17:12:33;1.80;;;0.40;;
74503;SDS011;62988;55.776;37.544;2023-02-15T17:14:59;2.20;;;0.50;;
74503;SDS011;62988;55.776;37.544;2023-02-15T17:17:24;2.57;;;0.50;;
74503;SDS011;62988;55.776;37.544;2023-02-15T17:19:50;2.07;;;0.57;;
74503;SDS011;62988;55.776;37.544;2023-02-15T17:22:21;1.30;;;0.50;;
74503;SDS011;62988;55.776;37.544;2023-02-15T17:24:47;3.50;;;0.80;;
74503;SDS011;62988;55.776;37.544;2023-02-15T17:29:51;2.05;;;0.40;;
74503;SDS011;62988;55.776;37.544;2023-02-15T17:32:26;1.75;;;0.30;;
74503;SDS011;62988;55.776;37.544;2023-02-15T17:40:23;1.15;;;0.40;;
74503;SDS011;62988;55.776;37.544;2023-02-15T17:42:47;1.67;;;0.50;;
74503;SDS011;62988;55.776;37.544;2023-02-15T17:45:15;1.70;;;0.60;;
74503;SDS011;62988;55.776;37.544;2023-02-15T17:47:40;2.15;;;0.60;;
74503;SDS011;62988;55.776;37.544;2023-02-15T17:50:06;0.80;;;0.20;;
74503;SDS011;62988;55.776;37.544;2023-02-15T17:52:32;2.88;;;1.05;;